Portada
METAR-TAF:

METAR-TAF

Aeroports :

Christchurch, Nova Zelanda

latitud: 43-29S, longitud: 172-33E, altitud: 38 m

Observació

L'informe es va fer fa 26 minuts, a les 09:30 UTC
Vent 2 kt del Est
Temperatura 7°C
Humitat 100%
Pressió 1035 hPa
Visibilitat 10 km o més

METAR: NZCH 060930Z AUTO 09002KT 9999 NCD 07/07 Q1035 NOSIG

Hora: 21:56 (09:56 UTC)

Pronòstic

L'informe es va fer fa 4 hores i 52 minuts, a les 05:04 UTC
Pronòstic vàlid del 06 a les 06 UTC al 07 a les 06 UTC
Vent 8 kt del Est/Nord-Est
Visibilitat 10 km o més
sense núvols per sota de 1500 mi sense presència de cumulonimbus.
Probabilitat 30%
l' 06 a les 14 UTC al 06 a les 20 UTC
Visibilitat: 0500 m
Cel ennuvolat a una alçada de 800 ft
boira
Evolucionant progressivament
l' 06 a les 23 UTC al 07 a les 01 UTC
Vent 15 kt del Est/Nord-Est amb ràfegues de 25 kt

TAF: NZCH 060504Z 0606/0706 06008KT CAVOK PROB30 0614/0620 0500 FG BKN008 BECMG 0623/0701 06015G25KT

Observacions i pronòstics meteorològics de més de 4000 aeroports (METAR i TAF).

Les estacions disponibles són els punts grocs i vermells al mapa.

Posi el ratolí al punt desitjat per veure el nom de l'estació.

Feu clic per veure les observacions i els pronòstics meteorològics.

Per canviar el mapa: feu clic els botons verds amb una creu de color negre per apropar; al botó verd amb un guió per allunyar la imatge; o en les fletxes verdes per a mapes adjacents.


METAR-TAF: